createdAt,value
2018-02-04T00:00:24.160Z,959.3
2018-02-04T00:01:25.810Z,959.3
2018-02-04T00:02:27.454Z,959.3
2018-02-04T00:03:29.092Z,959.3
2018-02-04T00:04:30.742Z,959.3
2018-02-04T00:05:32.394Z,959.4
2018-02-04T00:06:34.049Z,959.4
2018-02-04T00:07:35.719Z,959.3
2018-02-04T00:08:37.358Z,959.3
2018-02-04T00:09:38.999Z,959.4
2018-02-04T00:10:40.640Z,959.4
2018-02-04T00:11:42.318Z,959.4
2018-02-04T00:12:43.979Z,959.4
2018-02-04T00:13:45.629Z,959.4
2018-02-04T00:14:47.269Z,959.5
2018-02-04T00:15:48.916Z,959.4
2018-02-04T00:16:50.562Z,959.4
2018-02-04T00:17:52.213Z,959.5
2018-02-04T00:18:53.865Z,959.4
2018-02-04T00:19:55.524Z,959.5
2018-02-04T00:20:57.171Z,959.5
2018-02-04T00:21:58.823Z,959.4
2018-02-04T00:23:00.465Z,959.5
2018-02-04T00:24:02.121Z,959.4
2018-02-04T00:25:03.768Z,959.5
2018-02-04T00:26:05.414Z,959.5
2018-02-04T00:27:07.067Z,959.5
2018-02-04T00:28:08.713Z,959.5
2018-02-04T00:29:10.369Z,959.5
2018-02-04T00:30:12.029Z,959.5
2018-02-04T00:31:13.681Z,959.5
2018-02-04T00:32:15.324Z,959.5
2018-02-04T00:33:16.970Z,959.5
2018-02-04T00:34:18.623Z,959.5
2018-02-04T00:35:20.270Z,959.5
2018-02-04T00:36:21.913Z,959.5
2018-02-04T00:37:23.562Z,959.6
2018-02-04T00:38:25.206Z,959.6
2018-02-04T00:39:26.894Z,959.6
2018-02-04T00:40:28.547Z,959.5
2018-02-04T00:41:30.190Z,959.6
2018-02-04T00:42:31.901Z,959.6
2018-02-04T00:43:33.492Z,959.6
2018-02-04T00:44:35.142Z,959.6
2018-02-04T00:45:36.803Z,959.6
2018-02-04T00:46:38.449Z,959.6
2018-02-04T00:47:40.101Z,959.6
2018-02-04T00:48:41.759Z,959.6
2018-02-04T00:49:43.411Z,959.6
2018-02-04T00:50:45.061Z,959.6
2018-02-04T00:51:46.715Z,959.6
2018-02-04T00:52:48.392Z,959.6
2018-02-04T00:53:50.033Z,959.7
2018-02-04T00:54:51.676Z,959.7
2018-02-04T00:55:53.338Z,959.6
2018-02-04T00:56:54.992Z,959.7
2018-02-04T00:57:56.630Z,959.7
2018-02-04T00:58:58.286Z,959.7
2018-02-04T00:59:59.931Z,959.7
2018-02-04T01:01:01.575Z,959.8
2018-02-04T01:02:03.221Z,959.8
2018-02-04T01:03:04.869Z,959.8
2018-02-04T01:04:06.516Z,959.8
2018-02-04T01:05:08.163Z,959.8
2018-02-04T01:06:09.808Z,959.8
2018-02-04T01:07:11.482Z,959.9
2018-02-04T01:08:13.125Z,959.9
2018-02-04T01:09:14.779Z,959.9
2018-02-04T01:10:16.432Z,960.0
2018-02-04T01:11:18.072Z,960.0
2018-02-04T01:12:19.725Z,959.9
2018-02-04T01:13:21.375Z,959.9
2018-02-04T01:14:23.023Z,960.0
2018-02-04T01:15:24.675Z,960.0
2018-02-04T01:16:26.330Z,960.0
2018-02-04T01:17:28.114Z,960.0
2018-02-04T01:18:29.773Z,960.0
2018-02-04T01:19:31.417Z,960.0
2018-02-04T01:20:33.065Z,960.0
2018-02-04T01:21:34.712Z,960.0
2018-02-04T01:22:36.362Z,960.1
2018-02-04T01:23:38.006Z,960.0
2018-02-04T01:24:39.649Z,960.1
2018-02-04T01:25:41.304Z,960.1
2018-02-04T01:26:42.954Z,960.1
2018-02-04T01:27:44.596Z,960.1
2018-02-04T01:28:46.240Z,960.0
2018-02-04T01:29:47.980Z,960.1
2018-02-04T01:30:49.630Z,960.1
2018-02-04T01:31:51.292Z,960.1
2018-02-04T01:32:52.929Z,960.1
2018-02-04T01:33:54.588Z,960.1
2018-02-04T01:34:56.236Z,960.2
2018-02-04T01:35:57.974Z,960.2
2018-02-04T01:36:59.646Z,960.2
2018-02-04T01:38:01.288Z,960.2
2018-02-04T01:39:02.934Z,960.2
2018-02-04T01:40:04.581Z,960.2
2018-02-04T01:41:06.234Z,960.2
2018-02-04T01:42:07.949Z,960.2
2018-02-04T01:43:09.592Z,960.2
2018-02-04T01:44:11.238Z,960.3
2018-02-04T01:45:12.885Z,960.3
2018-02-04T01:46:14.533Z,960.3
2018-02-04T01:47:16.180Z,960.4
2018-02-04T01:48:17.831Z,960.3
2018-02-04T01:49:19.474Z,960.4
2018-02-04T01:50:21.126Z,960.4
2018-02-04T01:51:22.767Z,960.3
2018-02-04T01:52:24.415Z,960.4
2018-02-04T01:53:26.064Z,960.4
2018-02-04T01:54:27.734Z,960.4
2018-02-04T01:55:29.365Z,960.4
2018-02-04T01:56:31.012Z,960.5
2018-02-04T01:57:32.652Z,960.5
2018-02-04T01:58:34.301Z,960.5
2018-02-04T01:59:35.995Z,960.4
2018-02-04T02:00:37.590Z,960.5
2018-02-04T02:01:39.235Z,960.4
2018-02-04T02:02:40.884Z,960.5
2018-02-04T02:03:42.521Z,960.5
2018-02-04T02:04:44.163Z,960.5
2018-02-04T02:05:45.816Z,960.5
2018-02-04T02:06:47.465Z,960.5
2018-02-04T02:07:49.119Z,960.5
2018-02-04T02:08:50.774Z,960.5
2018-02-04T02:09:52.422Z,960.4
2018-02-04T02:10:54.060Z,960.5
2018-02-04T02:11:55.706Z,960.5
2018-02-04T02:12:57.348Z,960.5
2018-02-04T02:13:58.998Z,960.5
2018-02-04T02:15:00.653Z,960.5
2018-02-04T02:16:02.302Z,960.5
2018-02-04T02:17:03.946Z,960.5
2018-02-04T02:18:05.597Z,960.5
2018-02-04T02:19:07.244Z,960.5
2018-02-04T02:20:08.891Z,960.6
2018-02-04T02:21:10.541Z,960.6
2018-02-04T02:22:12.188Z,960.6
2018-02-04T02:23:13.860Z,960.6
2018-02-04T02:24:15.507Z,960.6
2018-02-04T02:25:17.156Z,960.7
2018-02-04T02:26:18.797Z,960.7
2018-02-04T02:27:20.450Z,960.6
2018-02-04T02:28:22.104Z,960.7
2018-02-04T02:29:23.762Z,960.7
2018-02-04T02:30:25.412Z,960.7
2018-02-04T02:31:27.059Z,960.7
2018-02-04T02:32:28.710Z,960.8
2018-02-04T02:33:30.365Z,960.8
2018-02-04T02:34:32.007Z,960.8
2018-02-04T02:35:33.652Z,960.8
2018-02-04T02:36:35.305Z,960.8
2018-02-04T02:37:36.948Z,960.8
2018-02-04T02:38:38.607Z,960.8
2018-02-04T02:39:40.256Z,960.8
2018-02-04T02:40:41.895Z,960.8
2018-02-04T02:41:43.534Z,960.8
2018-02-04T02:42:45.175Z,960.9
2018-02-04T02:43:46.824Z,960.9
2018-02-04T02:44:48.475Z,960.9
2018-02-04T02:45:50.116Z,960.9
2018-02-04T02:46:51.763Z,960.9
2018-02-04T02:47:53.406Z,961.0
2018-02-04T02:48:55.050Z,961.0
2018-02-04T02:49:56.699Z,960.9
2018-02-04T02:50:58.352Z,961.0
2018-02-04T02:51:59.991Z,960.9
2018-02-04T02:53:01.642Z,961.0
2018-02-04T02:54:03.297Z,961.0
2018-02-04T02:55:04.935Z,961.0
2018-02-04T03:01:20.898Z,961.1
2018-02-04T03:02:22.545Z,961.1
2018-02-04T03:03:24.185Z,961.1
2018-02-04T03:04:26.161Z,961.2
2018-02-04T03:05:27.766Z,961.2
2018-02-04T03:06:29.411Z,961.2
2018-02-04T03:07:31.059Z,961.3
2018-02-04T03:08:32.714Z,961.3
2018-02-04T03:09:34.360Z,961.4
2018-02-04T03:10:35.995Z,961.3
2018-02-04T03:11:37.658Z,961.3
2018-02-04T03:12:39.300Z,961.4
2018-02-04T03:13:40.961Z,961.4
2018-02-04T03:14:42.615Z,961.4
2018-02-04T03:15:44.264Z,961.4
2018-02-04T03:16:45.915Z,961.4
2018-02-04T03:17:47.554Z,961.4
2018-02-04T03:18:49.211Z,961.5
2018-02-04T03:19:50.861Z,961.4
2018-02-04T03:20:52.528Z,961.5
2018-02-04T03:21:54.211Z,961.5
2018-02-04T03:22:55.860Z,961.4
2018-02-04T03:23:57.502Z,961.5
2018-02-04T03:24:59.157Z,961.5
2018-02-04T03:26:00.821Z,961.5
2018-02-04T03:27:02.454Z,961.5
2018-02-04T03:28:04.110Z,961.5
2018-02-04T03:29:05.773Z,961.5
2018-02-04T03:30:07.428Z,961.5
2018-02-04T03:31:09.081Z,961.6
2018-02-04T03:32:10.737Z,961.6
2018-02-04T03:33:12.388Z,961.6
2018-02-04T03:34:14.046Z,961.6
2018-02-04T03:35:15.696Z,961.7
2018-02-04T03:36:17.346Z,961.7
2018-02-04T03:37:18.997Z,961.6
2018-02-04T03:38:20.646Z,961.7
2018-02-04T03:39:22.300Z,961.6
2018-02-04T03:40:23.979Z,961.6
2018-02-04T03:41:25.643Z,961.6
2018-02-04T03:42:27.288Z,961.6
2018-02-04T03:43:28.936Z,961.6
2018-02-04T03:44:30.590Z,961.6
2018-02-04T03:45:32.236Z,961.6
2018-02-04T03:46:33.886Z,961.6
2018-02-04T03:47:35.535Z,961.7
2018-02-04T03:48:37.185Z,961.7
2018-02-04T03:49:38.836Z,961.7
2018-02-04T03:50:40.493Z,961.7
2018-02-04T03:51:42.136Z,961.7
2018-02-04T03:52:43.790Z,961.8
2018-02-04T03:53:45.437Z,961.8
2018-02-04T03:54:47.096Z,961.8
2018-02-04T03:55:48.750Z,961.8
2018-02-04T03:56:50.412Z,961.8
2018-02-04T03:57:52.058Z,961.8
2018-02-04T03:58:53.746Z,961.8
2018-02-04T03:59:55.405Z,961.9
2018-02-04T04:00:57.053Z,961.9
2018-02-04T04:01:58.701Z,961.9
2018-02-04T04:03:00.357Z,961.9
2018-02-04T04:04:02.010Z,961.9
2018-02-04T04:05:03.666Z,962.0
2018-02-04T04:06:05.317Z,962.0
2018-02-04T04:07:06.981Z,962.0
2018-02-04T04:08:08.640Z,962.0
2018-02-04T04:09:10.290Z,962.0
2018-02-04T04:10:11.969Z,962.0
2018-02-04T04:11:13.621Z,962.0
2018-02-04T04:12:15.269Z,962.1
2018-02-04T04:13:16.911Z,962.1
2018-02-04T04:14:18.598Z,962.1
2018-02-04T04:15:20.240Z,962.1
2018-02-04T04:16:21.892Z,962.1
2018-02-04T04:17:23.543Z,962.1
2018-02-04T04:18:25.202Z,962.2
2018-02-04T04:19:26.850Z,962.2
2018-02-04T04:20:28.503Z,962.2
2018-02-04T04:21:30.146Z,962.2
2018-02-04T04:22:31.825Z,962.2
2018-02-04T04:23:33.473Z,962.2
2018-02-04T04:24:35.120Z,962.2
2018-02-04T04:25:36.776Z,962.3
2018-02-04T04:26:38.437Z,962.3
2018-02-04T04:27:40.085Z,962.3
2018-02-04T04:28:41.739Z,962.3
2018-02-04T04:29:43.381Z,962.4
2018-02-04T04:30:45.029Z,962.3
2018-02-04T04:31:46.688Z,962.4
2018-02-04T04:32:48.337Z,962.4
2018-02-04T04:33:50.022Z,962.3
2018-02-04T04:34:51.672Z,962.4
2018-02-04T04:35:53.322Z,962.4
2018-02-04T04:36:54.967Z,962.4
2018-02-04T04:37:56.617Z,962.5
2018-02-04T04:38:58.268Z,962.5
2018-02-04T04:39:59.918Z,962.5
2018-02-04T04:41:01.568Z,962.5
2018-02-04T04:42:03.218Z,962.5
2018-02-04T04:43:04.864Z,962.6
2018-02-04T04:44:06.516Z,962.5
2018-02-04T04:45:08.166Z,962.5
2018-02-04T04:46:09.814Z,962.5
2018-02-04T04:47:11.460Z,962.5
2018-02-04T04:48:13.116Z,962.5
2018-02-04T04:49:14.766Z,962.5
2018-02-04T04:50:16.409Z,962.5
2018-02-04T04:51:18.057Z,962.5
2018-02-04T04:52:19.731Z,962.5
2018-02-04T04:53:21.353Z,962.6
2018-02-04T04:54:23.003Z,962.6
2018-02-04T04:55:24.656Z,962.6
2018-02-04T04:56:26.309Z,962.6
2018-02-04T04:57:27.954Z,962.6
2018-02-04T04:58:29.601Z,962.6
2018-02-04T04:59:31.247Z,962.6
2018-02-04T05:00:32.902Z,962.6
2018-02-04T05:01:34.559Z,962.6
2018-02-04T05:02:36.211Z,962.7
2018-02-04T05:03:37.858Z,962.7
2018-02-04T05:04:39.493Z,962.7
2018-02-04T05:05:41.144Z,962.7
2018-02-04T05:06:42.790Z,962.7
2018-02-04T05:07:44.447Z,962.8
2018-02-04T05:08:46.094Z,962.8
2018-02-04T05:09:47.753Z,962.7
2018-02-04T05:10:49.404Z,962.8
2018-02-04T05:11:51.056Z,962.8
2018-02-04T05:12:52.714Z,962.8
2018-02-04T05:13:54.364Z,962.8
2018-02-04T05:14:56.016Z,962.8
2018-02-04T05:15:57.662Z,962.8
2018-02-04T05:16:59.316Z,962.9
2018-02-04T05:18:01.215Z,962.9
2018-02-04T05:19:02.868Z,962.9
2018-02-04T05:20:04.547Z,962.9
2018-02-04T05:21:06.205Z,962.9
2018-02-04T05:22:07.859Z,962.9
2018-02-04T05:23:09.512Z,962.9
2018-02-04T05:24:11.320Z,963.0
2018-02-04T05:25:12.906Z,963.0
2018-02-04T05:26:14.542Z,963.0
2018-02-04T05:27:16.192Z,963.1
2018-02-04T05:28:17.870Z,963.1
2018-02-04T05:29:19.490Z,963.1
2018-02-04T05:30:21.144Z,963.1
2018-02-04T05:31:22.802Z,963.1
2018-02-04T05:32:24.457Z,963.1
2018-02-04T05:33:26.102Z,963.2
2018-02-04T05:34:27.968Z,963.2
2018-02-04T05:35:29.619Z,963.2
2018-02-04T05:36:31.284Z,963.2
2018-02-04T05:37:32.934Z,963.2
2018-02-04T05:38:34.582Z,963.2
2018-02-04T05:39:36.223Z,963.2
2018-02-04T05:40:37.875Z,963.2
2018-02-04T05:41:39.525Z,963.2
2018-02-04T05:42:41.175Z,963.2
2018-02-04T05:43:42.825Z,963.2
2018-02-04T05:44:44.494Z,963.2
2018-02-04T05:45:46.144Z,963.3
2018-02-04T05:46:47.791Z,963.3
2018-02-04T05:47:49.441Z,963.3
2018-02-04T05:48:51.095Z,963.3
2018-02-04T05:49:52.734Z,963.3
2018-02-04T05:50:54.392Z,963.4
2018-02-04T05:51:56.037Z,963.3
2018-02-04T05:52:57.692Z,963.4
2018-02-04T05:53:59.337Z,963.4
2018-02-04T05:55:00.994Z,963.5
2018-02-04T05:56:02.646Z,963.5
2018-02-04T05:57:04.298Z,963.5
2018-02-04T05:58:05.954Z,963.5
2018-02-04T05:59:07.602Z,963.6
2018-02-04T06:00:09.259Z,963.6
2018-02-04T06:01:10.907Z,963.6
2018-02-04T06:02:12.582Z,963.6
2018-02-04T06:03:14.222Z,963.6
2018-02-04T06:04:15.871Z,963.6
2018-02-04T06:05:17.539Z,963.6
2018-02-04T06:06:19.184Z,963.6
2018-02-04T06:07:20.843Z,963.7
2018-02-04T06:08:22.505Z,963.7
2018-02-04T06:09:24.147Z,963.8
2018-02-04T06:10:25.800Z,963.8
2018-02-04T06:11:27.447Z,963.8
2018-02-04T06:12:29.097Z,963.8
2018-02-04T06:13:30.747Z,963.8
2018-02-04T06:14:32.405Z,963.8
2018-02-04T06:15:34.052Z,963.8
2018-02-04T06:16:35.700Z,963.9
2018-02-04T06:17:37.346Z,963.9
2018-02-04T06:18:38.983Z,963.9
2018-02-04T06:19:40.645Z,963.9
2018-02-04T06:20:42.293Z,963.9
2018-02-04T06:21:43.948Z,963.9
2018-02-04T06:22:45.591Z,964.0
2018-02-04T06:23:47.250Z,964.0
2018-02-04T06:24:48.893Z,964.0
2018-02-04T06:25:50.583Z,964.0
2018-02-04T06:26:52.190Z,964.0
2018-02-04T06:27:53.843Z,964.1
2018-02-04T06:28:55.504Z,964.0
2018-02-04T06:29:57.154Z,964.1
2018-02-04T06:30:58.802Z,964.1
2018-02-04T06:32:00.462Z,964.1
2018-02-04T06:33:02.115Z,964.1
2018-02-04T06:34:03.776Z,964.2
2018-02-04T06:35:05.422Z,964.2
2018-02-04T06:36:07.079Z,964.2
2018-02-04T06:37:08.730Z,964.2
2018-02-04T06:38:10.378Z,964.2
2018-02-04T06:39:12.033Z,964.3
2018-02-04T06:40:13.670Z,964.3
2018-02-04T06:41:15.337Z,964.3
2018-02-04T06:42:16.987Z,964.3
2018-02-04T06:43:18.642Z,964.3
2018-02-04T06:44:20.295Z,964.3
2018-02-04T06:45:21.946Z,964.4
2018-02-04T06:46:23.594Z,964.4
2018-02-04T06:47:25.248Z,964.4
2018-02-04T06:48:26.908Z,964.4
2018-02-04T06:49:28.558Z,964.4
2018-02-04T06:50:30.216Z,964.5
2018-02-04T06:51:31.870Z,964.5
2018-02-04T06:52:33.518Z,964.5
2018-02-04T06:53:35.217Z,964.6
2018-02-04T06:54:36.807Z,964.6
2018-02-04T06:55:38.460Z,964.5
2018-02-04T07:00:54.697Z,964.6
2018-02-04T07:01:56.342Z,964.6
2018-02-04T07:03:48.161Z,964.7
2018-02-04T07:04:49.813Z,964.7
2018-02-04T07:06:41.637Z,964.8
2018-02-04T07:07:43.282Z,964.8
2018-02-04T07:09:35.086Z,964.9
2018-02-04T07:10:36.734Z,964.9
2018-02-04T07:12:28.649Z,964.9
2018-02-04T07:13:30.304Z,965.0
2018-02-04T07:15:22.147Z,965.0
2018-02-04T07:16:24.266Z,965.1
2018-02-04T07:18:16.107Z,965.1
2018-02-04T07:19:17.761Z,965.1
2018-02-04T07:21:09.617Z,965.2
2018-02-04T07:22:11.264Z,965.2
2018-02-04T07:24:03.038Z,965.2
2018-02-04T07:25:04.688Z,965.2
2018-02-04T07:26:56.584Z,965.2
2018-02-04T07:27:58.239Z,965.2
2018-02-04T07:29:50.077Z,965.3
2018-02-04T07:30:51.737Z,965.3
2018-02-04T07:32:43.573Z,965.3
2018-02-04T07:33:45.226Z,965.3
2018-02-04T07:35:37.023Z,965.3
2018-02-04T07:36:38.674Z,965.4
2018-02-04T07:38:30.508Z,965.3
2018-02-04T07:39:32.168Z,965.4
2018-02-04T07:41:23.957Z,965.4
2018-02-04T07:42:25.599Z,965.4
2018-02-04T07:43:27.256Z,965.4
2018-02-04T07:44:28.902Z,965.5
2018-02-04T07:45:30.566Z,965.5
2018-02-04T07:46:32.216Z,965.5
2018-02-04T07:47:33.875Z,965.5
2018-02-04T07:48:35.530Z,965.5
2018-02-04T07:49:37.180Z,965.6
2018-02-04T07:50:38.836Z,965.6
2018-02-04T07:51:40.495Z,965.6
2018-02-04T07:52:42.151Z,965.6
2018-02-04T07:53:43.817Z,965.6
2018-02-04T07:54:45.467Z,965.6
2018-02-04T07:55:47.125Z,965.6
2018-02-04T07:56:48.773Z,965.6
2018-02-04T07:57:50.432Z,965.6
2018-02-04T07:58:52.082Z,965.6
2018-02-04T07:59:53.737Z,965.7
2018-02-04T08:00:55.444Z,965.6
2018-02-04T08:01:57.101Z,965.6
2018-02-04T08:02:58.754Z,965.7
2018-02-04T08:04:00.410Z,965.7
2018-02-04T08:05:02.113Z,965.7
2018-02-04T08:06:03.762Z,965.7
2018-02-04T08:07:05.417Z,965.7
2018-02-04T08:08:07.069Z,965.7
2018-02-04T08:09:08.728Z,965.8
2018-02-04T08:10:10.389Z,965.8
2018-02-04T08:11:12.042Z,965.8
2018-02-04T08:12:13.705Z,965.8
2018-02-04T08:13:15.551Z,965.8
2018-02-04T08:14:17.213Z,965.8
2018-02-04T08:15:18.885Z,965.8
2018-02-04T08:16:20.547Z,965.9
2018-02-04T08:17:22.211Z,965.9
2018-02-04T08:18:23.874Z,965.9
2018-02-04T08:19:25.557Z,965.9
2018-02-04T08:20:27.177Z,965.9
2018-02-04T08:21:28.856Z,965.9
2018-02-04T08:22:30.506Z,966.0
2018-02-04T08:23:32.170Z,966.0
2018-02-04T08:24:33.826Z,966.0
2018-02-04T08:25:35.485Z,966.0
2018-02-04T08:26:37.124Z,966.0
2018-02-04T08:27:38.788Z,965.9
2018-02-04T08:28:40.443Z,966.0
2018-02-04T08:29:42.098Z,966.1
2018-02-04T08:30:43.758Z,966.0
2018-02-04T08:31:45.414Z,966.0
2018-02-04T08:32:47.070Z,966.0
2018-02-04T08:33:48.729Z,966.1
2018-02-04T08:34:50.382Z,966.1
2018-02-04T08:35:52.047Z,966.1
2018-02-04T08:36:53.696Z,966.1
2018-02-04T08:37:55.384Z,966.1
2018-02-04T08:38:57.059Z,966.1
2018-02-04T08:39:58.700Z,966.2
2018-02-04T08:41:00.349Z,966.2
2018-02-04T08:42:02.008Z,966.3
2018-02-04T08:43:03.675Z,966.2
2018-02-04T08:44:05.330Z,966.3
2018-02-04T08:45:06.986Z,966.3
2018-02-04T08:46:08.651Z,966.3
2018-02-04T08:47:10.538Z,966.4
2018-02-04T08:48:12.188Z,966.4
2018-02-04T08:49:13.844Z,966.4
2018-02-04T08:50:15.499Z,966.4
2018-02-04T08:51:17.180Z,966.4
2018-02-04T08:52:18.851Z,966.4
2018-02-04T08:53:20.515Z,966.4
2018-02-04T08:54:22.166Z,966.4
2018-02-04T08:55:23.828Z,966.4
2018-02-04T08:56:25.519Z,966.5
2018-02-04T08:57:27.172Z,966.5
2018-02-04T08:58:28.830Z,966.5
2018-02-04T08:59:30.483Z,966.5
2018-02-04T09:00:32.144Z,966.5
2018-02-04T09:01:33.801Z,966.5
2018-02-04T09:02:35.672Z,966.5
2018-02-04T09:03:37.342Z,966.6
2018-02-04T09:04:39.036Z,966.5
2018-02-04T09:05:40.683Z,966.6
2018-02-04T09:06:42.362Z,966.6
2018-02-04T09:07:44.018Z,966.6
2018-02-04T09:08:45.788Z,966.7
2018-02-04T09:09:47.585Z,966.6
2018-02-04T09:10:49.246Z,966.7
2018-02-04T09:11:50.901Z,966.7
2018-02-04T09:12:52.554Z,966.8
2018-02-04T09:13:54.206Z,966.8
2018-02-04T09:14:55.869Z,966.8
2018-02-04T09:15:57.527Z,966.8
2018-02-04T09:16:59.196Z,966.8
2018-02-04T09:18:00.846Z,966.8
2018-02-04T09:19:02.510Z,966.9
2018-02-04T09:20:04.171Z,966.9
2018-02-04T09:21:05.829Z,966.9
2018-02-04T09:22:07.499Z,966.9
2018-02-04T09:23:09.171Z,966.9
2018-02-04T09:24:10.885Z,966.9
2018-02-04T09:25:12.564Z,966.9
2018-02-04T09:26:14.216Z,966.9
2018-02-04T09:27:15.877Z,967.0
2018-02-04T09:28:17.542Z,967.0
2018-02-04T09:29:19.204Z,967.0
2018-02-04T09:30:20.860Z,967.0
2018-02-04T09:31:22.514Z,967.0
2018-02-04T09:32:24.190Z,967.0
2018-02-04T09:33:25.847Z,967.0
2018-02-04T09:34:27.497Z,967.0
2018-02-04T09:35:29.164Z,967.1
2018-02-04T09:36:31.092Z,967.1
2018-02-04T09:37:32.841Z,967.1
2018-02-04T09:38:34.502Z,967.1
2018-02-04T09:39:36.299Z,967.1
2018-02-04T09:40:37.986Z,967.1
2018-02-04T09:41:39.998Z,967.2
2018-02-04T09:42:41.655Z,967.2
2018-02-04T09:43:43.316Z,967.2
2018-02-04T09:44:44.968Z,967.2
2018-02-04T09:45:46.625Z,967.2
2018-02-04T09:46:48.368Z,967.3
2018-02-04T09:47:50.335Z,967.3
2018-02-04T09:48:51.991Z,967.3
2018-02-04T09:49:53.668Z,967.3
2018-02-04T09:50:55.537Z,967.3
2018-02-04T09:51:57.193Z,967.3
2018-02-04T09:52:58.895Z,967.3
2018-02-04T09:54:00.549Z,967.4
2018-02-04T09:55:02.214Z,967.4
2018-02-04T09:56:03.877Z,967.4
2018-02-04T09:57:05.547Z,967.4
2018-02-04T09:58:07.789Z,967.5
2018-02-04T09:59:09.281Z,967.4
2018-02-04T10:00:10.946Z,967.5
2018-02-04T10:01:12.785Z,967.5
2018-02-04T10:02:14.447Z,967.5
2018-02-04T10:03:16.115Z,967.5
2018-02-04T10:04:17.994Z,967.5
2018-02-04T10:05:19.646Z,967.5
2018-02-04T10:06:21.357Z,967.6
2018-02-04T10:07:22.959Z,967.6
2018-02-04T10:08:24.622Z,967.6
2018-02-04T10:09:26.276Z,967.6
2018-02-04T10:10:27.948Z,967.6
2018-02-04T10:11:29.611Z,967.6
2018-02-04T10:12:31.272Z,967.6
2018-02-04T10:13:32.937Z,967.6
2018-02-04T10:14:34.633Z,967.6
2018-02-04T10:15:36.302Z,967.7
2018-02-04T10:16:37.959Z,967.7
2018-02-04T10:17:39.702Z,967.7
2018-02-04T10:18:41.389Z,967.8
2018-02-04T10:19:43.034Z,967.7
2018-02-04T10:20:44.697Z,967.8
2018-02-04T10:21:46.368Z,967.8
2018-02-04T10:22:48.032Z,967.8
2018-02-04T10:23:49.679Z,967.8
2018-02-04T10:24:51.333Z,967.8
2018-02-04T10:25:52.979Z,967.8
2018-02-04T10:26:54.641Z,967.8
2018-02-04T10:27:56.312Z,967.9
2018-02-04T10:28:57.978Z,967.8
2018-02-04T10:29:59.665Z,967.8
2018-02-04T10:31:01.322Z,967.8
2018-02-04T10:32:03.001Z,967.9
2018-02-04T10:33:04.681Z,967.8
2018-02-04T10:34:06.361Z,967.9
2018-02-04T10:35:08.100Z,967.8
2018-02-04T10:36:09.762Z,967.8
2018-02-04T10:37:11.434Z,967.9
2018-02-04T10:38:13.102Z,967.9
2018-02-04T10:39:14.761Z,967.9
2018-02-04T10:40:16.691Z,967.8
2018-02-04T10:41:18.358Z,967.9
2018-02-04T10:42:20.008Z,968.0
2018-02-04T10:43:21.662Z,968.0
2018-02-04T10:44:23.319Z,968.0
2018-02-04T10:45:24.986Z,968.0
2018-02-04T10:46:26.639Z,968.0
2018-02-04T10:47:28.323Z,968.0
2018-02-04T10:48:29.970Z,968.0
2018-02-04T10:49:31.633Z,968.0
2018-02-04T10:50:33.303Z,968.1
2018-02-04T10:51:34.968Z,968.0
2018-02-04T10:52:36.623Z,968.0
2018-02-04T10:53:38.281Z,967.9
2018-02-04T10:54:39.935Z,968.0
2018-02-04T10:55:41.600Z,968.0
2018-02-04T11:01:45.085Z,968.1
2018-02-04T11:02:46.752Z,968.2
2018-02-04T11:03:48.406Z,968.2
2018-02-04T11:04:50.064Z,968.3
2018-02-04T11:05:51.717Z,968.3
2018-02-04T11:06:53.372Z,968.3
2018-02-04T11:07:55.038Z,968.3
2018-02-04T11:08:56.717Z,968.2
2018-02-04T11:09:58.375Z,968.2
2018-02-04T11:11:00.025Z,968.2
2018-02-04T11:12:01.683Z,968.2
2018-02-04T11:13:03.343Z,968.2
2018-02-04T11:14:04.997Z,968.2
2018-02-04T11:15:06.665Z,968.2
2018-02-04T11:16:08.320Z,968.3
2018-02-04T11:17:11.492Z,968.2
2018-02-04T11:18:13.172Z,968.2
2018-02-04T11:19:17.973Z,968.1
2018-02-04T11:20:19.633Z,968.2
2018-02-04T11:21:21.287Z,968.2
2018-02-04T11:22:22.939Z,968.1
2018-02-04T11:23:28.196Z,968.1
2018-02-04T11:24:30.116Z,968.1
2018-02-04T11:25:31.876Z,968.2
2018-02-04T11:26:33.601Z,968.2
2018-02-04T11:27:35.346Z,968.2
2018-02-04T11:28:37.664Z,968.2
2018-02-04T11:29:39.533Z,968.2
2018-02-04T11:30:42.466Z,968.2
2018-02-04T11:31:44.302Z,968.3
2018-02-04T11:32:46.811Z,968.3
2018-02-04T11:33:48.561Z,968.2
2018-02-04T11:34:50.304Z,968.2
2018-02-04T11:35:52.023Z,968.2
2018-02-04T11:36:54.038Z,968.2
2018-02-04T11:37:56.221Z,968.2
2018-02-04T11:38:58.002Z,968.1
2018-02-04T11:39:59.726Z,968.2
2018-02-04T11:41:01.423Z,968.2
2018-02-04T11:42:03.173Z,968.3
2018-02-04T11:43:05.000Z,968.3
2018-02-04T11:44:06.941Z,968.3
2018-02-04T11:45:08.670Z,968.3
2018-02-04T11:46:10.490Z,968.3
2018-02-04T11:47:13.127Z,968.4
2018-02-04T11:48:16.128Z,968.4
2018-02-04T11:49:18.671Z,968.4
2018-02-04T11:50:20.602Z,968.4
2018-02-04T11:51:26.151Z,968.4
2018-02-04T11:52:27.881Z,968.4
2018-02-04T11:53:29.608Z,968.4
2018-02-04T11:54:31.970Z,968.4
2018-02-04T11:55:33.714Z,968.4
2018-02-04T11:56:36.418Z,968.4
2018-02-04T11:57:38.204Z,968.4
2018-02-04T11:58:39.950Z,968.4
2018-02-04T11:59:41.624Z,968.5
2018-02-04T12:00:43.317Z,968.5
2018-02-04T12:01:45.008Z,968.5
2018-02-04T12:02:46.709Z,968.5
2018-02-04T12:03:48.805Z,968.5
2018-02-04T12:04:50.563Z,968.6
2018-02-04T12:05:52.335Z,968.5
2018-02-04T12:06:54.025Z,968.5
2018-02-04T12:07:55.688Z,968.5
2018-02-04T12:08:57.376Z,968.5
2018-02-04T12:09:59.154Z,968.5
2018-02-04T12:11:00.880Z,968.5
2018-02-04T12:12:02.552Z,968.4
2018-02-04T12:13:04.272Z,968.5
2018-02-04T12:14:05.972Z,968.5
2018-02-04T12:15:07.654Z,968.5
2018-02-04T12:16:10.460Z,968.6
2018-02-04T12:17:12.185Z,968.6
2018-02-04T12:18:13.968Z,968.6
2018-02-04T12:19:16.036Z,968.6
2018-02-04T12:20:17.774Z,968.6
2018-02-04T12:21:19.628Z,968.6
2018-02-04T12:22:21.400Z,968.6
2018-02-04T12:23:23.138Z,968.6
2018-02-04T12:24:24.869Z,968.7
2018-02-04T12:25:26.590Z,968.6
2018-02-04T12:26:28.397Z,968.6
2018-02-04T12:27:30.348Z,968.6
2018-02-04T12:28:32.048Z,968.6
2018-02-04T12:29:33.775Z,968.6
2018-02-04T12:30:35.500Z,968.7
2018-02-04T12:31:37.301Z,968.7
2018-02-04T12:32:39.000Z,968.7
2018-02-04T12:33:40.835Z,968.7
2018-02-04T12:34:42.544Z,968.7
2018-02-04T12:35:44.328Z,968.7
2018-02-04T12:36:46.010Z,968.8
2018-02-04T12:37:47.846Z,968.8
2018-02-04T12:38:49.621Z,968.8
2018-02-04T12:39:51.360Z,968.8
2018-02-04T12:40:53.321Z,968.8
2018-02-04T12:41:55.071Z,968.7
2018-02-04T12:42:56.790Z,968.8
2018-02-04T12:43:58.528Z,968.8
2018-02-04T12:45:00.256Z,968.8
2018-02-04T12:46:02.014Z,968.8
2018-02-04T12:47:03.725Z,968.8
2018-02-04T12:48:05.463Z,968.8
2018-02-04T12:49:07.203Z,968.8
2018-02-04T12:50:09.294Z,968.8
2018-02-04T12:51:11.001Z,968.8
2018-02-04T12:52:12.710Z,968.8
2018-02-04T12:53:14.419Z,968.9
2018-02-04T12:54:16.138Z,968.9
2018-02-04T12:55:17.810Z,968.9
2018-02-04T12:56:19.541Z,968.9
2018-02-04T12:57:21.280Z,969.0
2018-02-04T12:58:23.037Z,968.9
2018-02-04T12:59:24.736Z,969.0
2018-02-04T13:00:26.449Z,969.0
2018-02-04T13:01:28.171Z,969.0
2018-02-04T13:02:29.893Z,969.0
2018-02-04T13:03:31.588Z,969.0
2018-02-04T13:04:33.280Z,969.0
2018-02-04T13:05:34.979Z,969.0
2018-02-04T13:06:36.906Z,969.0
2018-02-04T13:07:38.641Z,969.0
2018-02-04T13:08:40.382Z,969.0
2018-02-04T13:09:42.835Z,969.0
2018-02-04T13:10:44.652Z,969.1
2018-02-04T13:11:47.145Z,969.1
2018-02-04T13:12:50.784Z,969.1
2018-02-04T13:13:52.517Z,969.0
2018-02-04T13:14:55.042Z,969.0
2018-02-04T13:15:57.561Z,969.1
2018-02-04T13:16:59.277Z,969.1
2018-02-04T13:18:00.973Z,969.1
2018-02-04T13:19:02.726Z,969.1
2018-02-04T13:20:04.388Z,969.2
2018-02-04T13:21:06.148Z,969.1
2018-02-04T13:22:07.870Z,969.1
2018-02-04T13:23:09.554Z,969.2
2018-02-04T13:24:11.309Z,969.2
2018-02-04T13:25:13.033Z,969.2
2018-02-04T13:26:14.729Z,969.2
2018-02-04T13:27:16.482Z,969.2
2018-02-04T13:28:18.206Z,969.2
2018-02-04T13:29:19.905Z,969.2
2018-02-04T13:30:21.611Z,969.2
2018-02-04T13:31:25.065Z,969.3
2018-02-04T13:32:26.826Z,969.2
2018-02-04T13:33:28.575Z,969.3
2018-02-04T13:34:30.261Z,969.3
2018-02-04T13:35:32.604Z,969.3
2018-02-04T13:36:34.430Z,969.3
2018-02-04T13:37:36.452Z,969.3
2018-02-04T13:38:38.352Z,969.3
2018-02-04T13:39:40.321Z,969.3
2018-02-04T13:40:41.926Z,969.3